Airfield :
LOGIN :

Register | Disclaimer

   EN    FR    IT 

 










Legend :    VFR   Marginal VFR   IFR   Intensive IFR   Very Intensive IFR
Visi :
Ceiling :
>= 8 km
>= 3000ft
5 to 8 km
1000 to 3000 ft
1500m to 5 km
500 to 1000 ft
800 to 1500m
200 to 500 ft
< 800m
< 200 ft
Symbols :   Thunderstorms  Fog  Heavy snow  Heavy precipitations  Wind > 20 kt
SIGMETs :     Misc.  Thunderstorms  Icing  Turbulence  Mountain Waves  Volcanic Ashes







- Airport Elevation : 74 ft
- IATA code : EIN


EHEH - Eindhoven

CURRENT METAR :
  • 150025Z AUTO 21007KT 180V240 9999 BKN007 BKN008 02/01 Q0990 GRN

EXPIRED METARs :
  • 142355Z AUTO 22008KT 190V260 9999 OVC007 02/01 Q0990 GRN
  • 142325Z AUTO 23009KT 200V260 9999 OVC007 02/01 Q0990 GRN
  • 142305Z AUTO 23009KT 9999 OVC007 02/01 Q0990 GRN
  • 142255Z AUTO 24010KT 200V270 9999 OVC006 02/01 Q0990 YLO
  • 142225Z AUTO 22010KT 190V250 9999 OVC007 02/01 Q0990 GRN
  • 142210Z AUTO 21008KT 180V240 9999 OVC007 02/01 Q0989 GRN
  • 142155Z AUTO 22006KT 9999 SCT009 BKN010 01/M00 Q0989 GRN 21008KT 9999 BKN009
  • 142148Z AUTO 21005KT 9999 SCT010 01/M00 Q0989 GRN 21008KT CAVOK BECMG 4000 BR NSC

TAF TAF EHEH
Valid from the 15 at 00:00 until the 16 at 06:00 UTC


142035Z 1500/1606 23008KT 9999 BKN007
PROB40
TEMPO 1500/1506 FEW020
PROB30
TEMPO 1506/1515 4000 -SHRA FEW005 BKN008 SCT014CB BKN020
BECMG 1516/1519 VRB02KT 4000 BR
PROB40 1521/1602 0800 FG BKN001
BECMG 1602/1605 27005KT 9999 SCT020
TEMPO 1602/1606 4500 SHRA SHRAGS SCT018CB BKN020
No reported NOTAMs for that airfield.



MET'MAP, your aeronautical weather chart ! - Copyright ORBIFLY December 2007 - Disclaimer

ORBIFLY MET'MAP TEAM :

Programming & Development : Alexandra Zaïnal
Concept & Development : Baudouin d'Aumeries
Co-Development & Prog : Marc-Olivier Méhu
Technical & hardware support : Manuel Goepfert

Contact : metmap@orbifly.com




SOURCES & CREDITS :

   NOAA